Time;durP1;ratioP1;P1;durP2;ratioP2;P2;SDS_P1;SDS_P2;PMS_P1;PMS_P2;Temp;Humidity;BMP_temperature;BMP_pressure;BME280_temperature;BME280_humidity;BME280_pressure;Samples;Min_cycle;Max_cycle;Signal;HPM_P1;HPM_P2
2021/05/22 00:01:38;;;;;;;5.15;2.67;;;16.00;81.00;;;;;;5006563;28;20478;-83
2021/05/22 00:04:05;;;;;;;5.82;3.13;;;16.00;81.10;;;;;;5006818;28;20076;-81
2021/05/22 00:06:30;;;;;;;7.20;3.65;;;15.90;81.00;;;;;;5006789;28;20441;-76
2021/05/22 00:08:56;;;;;;;9.23;2.83;;;15.90;81.10;;;;;;5006338;28;20026;-86
2021/05/22 00:11:22;;;;;;;6.95;2.60;;;15.80;81.30;;;;;;5006334;28;20151;-76
2021/05/22 00:13:48;;;;;;;6.43;2.97;;;15.70;81.50;;;;;;5006290;28;20079;-86
2021/05/22 00:16:14;;;;;;;6.15;2.90;;;15.70;81.60;;;;;;5006140;28;20653;-86
2021/05/22 00:18:40;;;;;;;3.65;2.45;;;15.70;81.80;;;;;;5006295;28;20034;-77
2021/05/22 00:21:06;;;;;;;7.17;2.93;;;15.60;82.00;;;;;;5006245;28;20023;-85
2021/05/22 00:23:32;;;;;;;4.53;2.20;;;15.60;82.30;;;;;;5004982;28;20862;-85
2021/05/22 00:25:58;;;;;;;6.65;2.80;;;15.50;82.20;;;;;;4997246;28;20754;-76
2021/05/22 00:28:24;;;;;;;9.05;2.20;;;15.50;82.40;;;;;;5003679;28;20030;-77
2021/05/22 00:30:50;;;;;;;7.25;3.13;;;15.50;82.20;;;;;;4993114;28;20570;-86
2021/05/22 00:33:16;;;;;;;5.80;2.53;;;15.50;82.40;;;;;;4992913;28;20121;-76
2021/05/22 00:35:43;;;;;;;4.47;2.35;;;15.50;82.70;;;;;;4992839;28;20313;-76
2021/05/22 00:38:10;;;;;;;3.20;2.35;;;15.40;82.80;;;;;;4992786;28;20355;-80
2021/05/22 00:40:35;;;;;;;6.88;2.47;;;15.50;82.40;;;;;;4993113;28;20114;-82
2021/05/22 00:43:02;;;;;;;5.35;2.33;;;15.40;82.60;;;;;;4992942;28;20062;-76
2021/05/22 00:45:28;;;;;;;3.45;1.92;;;15.40;82.80;;;;;;4992881;28;20035;-86
2021/05/22 00:47:55;;;;;;;3.58;1.80;;;15.40;82.80;;;;;;4992564;28;20478;-76
2021/05/22 00:50:28;;;;;;;3.83;2.13;;;15.40;82.80;;;;;;4992896;28;20098;-77
2021/05/22 00:52:54;;;;;;;3.78;1.92;;;15.50;82.50;;;;;;4992491;28;20026;-76
2021/05/22 00:55:21;;;;;;;5.18;2.28;;;15.50;82.20;;;;;;4992579;28;20026;-86
2021/05/22 00:57:47;;;;;;;3.67;2.80;;;15.50;82.20;;;;;;4992510;28;20482;-84
2021/05/22 01:00:16;;;;;;;4.93;2.78;;;15.50;82.30;;;;;;4992896;28;20481;-85
2021/05/22 01:02:43;;;;;;;4.03;1.85;;;15.50;82.50;;;;;;4992772;28;20547;-86
2021/05/22 01:05:10;;;;;;;3.28;2.10;;;15.50;82.70;;;;;;4992607;28;20027;-79
2021/05/22 01:07:36;;;;;;;4.93;2.08;;;15.40;82.80;;;;;;4992318;28;20037;-80
2021/05/22 01:10:06;;;;;;;5.57;2.83;;;15.50;82.70;;;;;;4992339;28;20023;-86
2021/05/22 01:12:36;;;;;;;3.38;2.08;;;15.50;82.50;;;;;;4992340;28;20030;-85
2021/05/22 01:15:15;;;;;;;4.78;2.22;;;15.50;82.40;;;;;;4992102;28;20054;-86
2021/05/22 01:17:46;;;;;;;3.08;2.05;;;15.40;82.30;;;;;;4992489;28;20035;-79
2021/05/22 01:20:55;;;;;;;6.30;2.13;;;15.40;82.60;;;;;;4991183;28;20514;-85
2021/05/22 01:23:37;;;;;;;2.78;2.13;;;15.40;82.90;;;;;;5014193;28;20053;-75
2021/05/22 01:26:03;;;;;;;7.60;2.22;;;15.30;82.80;;;;;;4992253;28;20475;-77
2021/05/22 01:28:30;;;;;;;4.47;2.10;;;15.30;82.60;;;;;;4992034;28;20104;-85
2021/05/22 01:30:56;;;;;;;4.30;2.17;;;15.30;83.10;;;;;;4992178;28;20030;-77
2021/05/22 01:33:23;;;;;;;4.25;2.05;;;15.20;83.90;;;;;;4990789;28;20044;-76
2021/05/22 01:35:50;;;;;;;7.65;3.05;;;15.20;84.50;;;;;;4992361;28;20506;-85
2021/05/22 01:38:16;;;;;;;2.88;1.85;;;15.20;85.00;;;;;;4997098;28;20022;-80
2021/05/22 01:40:42;;;;;;;4.57;2.13;;;15.30;86.00;;;;;;4999459;28;20045;-78
2021/05/22 01:43:09;;;;;;;4.78;2.38;;;15.30;86.80;;;;;;4974431;28;20066;-76
2021/05/22 01:45:43;;;;;;;4.03;1.95;;;15.30;86.80;;;;;;4991916;28;20068;-85
2021/05/22 01:48:16;;;;;;;5.60;2.28;;;15.30;87.00;;;;;;4991766;28;20030;-76
2021/05/22 01:50:45;;;;;;;;;;;15.30;87.30;;;;;;4992138;28;20027;-76
2021/05/22 01:53:13;;;;;;;2.95;1.77;;;15.30;87.60;;;;;;4991760;28;19992;-84
2021/05/22 01:55:40;;;;;;;5.70;2.65;;;15.40;88.00;;;;;;4991824;28;20556;-76
2021/05/22 01:58:09;;;;;;;3.58;2.40;;;15.40;88.30;;;;;;4991566;28;20047;-85
2021/05/22 02:00:35;;;;;;;4.75;2.60;;;15.40;89.50;;;;;;4991487;28;20034;-85
2021/05/22 02:03:35;;;;;;;3.53;2.08;;;15.30;90.10;;;;;;4991376;28;20145;-75
2021/05/22 02:06:04;;;;;;;5.00;2.03;;;15.40;90.50;;;;;;4991390;28;20045;-79
2021/05/22 02:08:38;;;;;;;3.78;2.45;;;15.40;91.10;;;;;;4991552;28;20034;-79
2021/05/22 02:11:05;;;;;;;3.55;2.00;;;15.40;92.20;;;;;;4991295;28;20103;-80
2021/05/22 02:13:32;;;;;;;4.30;2.40;;;15.40;92.30;;;;;;4991086;28;20058;-78
2021/05/22 02:15:59;;;;;;;5.70;2.20;;;15.40;92.40;;;;;;4990213;28;20039;-79
2021/05/22 02:18:31;;;;;;;3.65;1.90;;;15.40;92.50;;;;;;4991371;28;20030;-85
2021/05/22 02:21:00;;;;;;;5.22;2.40;;;15.40;92.50;;;;;;4991285;28;20487;-76
2021/05/22 02:23:28;;;;;;;3.58;2.60;;;15.40;92.60;;;;;;4991392;28;20033;-76
2021/05/22 02:25:56;;;;;;;7.45;2.25;;;15.40;92.60;;;;;;4991374;28;20479;-79
2021/05/22 02:28:23;;;;;;;4.10;2.10;;;15.40;92.60;;;;;;4991440;28;20395;-85
2021/05/22 02:30:50;;;;;;;5.63;2.08;;;15.40;92.80;;;;;;4991181;28;20419;-84
2021/05/22 02:33:19;;;;;;;4.93;2.03;;;15.40;93.20;;;;;;4990958;28;20532;-84
2021/05/22 02:35:47;;;;;;;7.28;2.63;;;15.40;93.60;;;;;;4989746;28;20038;-84
2021/05/22 02:38:21;;;;;;;4.80;2.67;;;15.40;93.80;;;;;;4990841;28;20023;-75
2021/05/22 02:40:52;;;;;;;3.50;2.67;;;15.40;94.10;;;;;;4989666;28;20495;-77
2021/05/22 02:43:19;;;;;;;7.28;2.55;;;15.40;94.30;;;;;;4990919;28;20064;-78
2021/05/22 02:45:46;;;;;;;9.82;3.03;;;15.40;94.50;;;;;;4990895;28;20101;-76
2021/05/22 02:48:17;;;;;;;4.43;2.25;;;15.30;95.00;;;;;;4990644;28;20486;-76
2021/05/22 02:50:46;;;;;;;5.28;2.75;;;15.40;95.50;;;;;;4998302;28;20037;-75
2021/05/22 02:53:13;;;;;;;6.80;2.47;;;15.30;95.70;;;;;;4990490;28;20075;-83
2021/05/22 02:55:39;;;;;;;3.90;2.40;;;15.40;96.00;;;;;;4990618;28;20033;-76
2021/05/22 02:58:06;;;;;;;4.93;2.20;;;15.40;96.40;;;;;;4990693;28;20075;-84
2021/05/22 03:00:32;;;;;;;3.67;2.30;;;15.40;96.50;;;;;;4990494;28;20029;-75
2021/05/22 03:02:59;;;;;;;7.38;3.00;;;15.50;96.70;;;;;;4990397;28;20026;-76
2021/05/22 03:05:25;;;;;;;5.40;2.20;;;15.50;96.90;;;;;;4990510;28;20049;-83
2021/05/22 03:07:52;;;;;;;4.93;2.08;;;15.50;97.10;;;;;;4990386;28;20023;-79
2021/05/22 03:10:18;;;;;;;8.32;2.38;;;15.50;97.20;;;;;;4990440;28;20028;-84
2021/05/22 03:12:44;;;;;;;8.27;3.03;;;15.50;97.20;;;;;;4990457;28;20099;-83
2021/05/22 03:15:11;;;;;;;7.93;2.65;;;15.50;97.30;;;;;;4990109;28;20093;-75
2021/05/22 03:17:37;;;;;;;4.40;2.38;;;15.50;97.30;;;;;;4990238;28;20084;-84
2021/05/22 03:20:06;;;;;;;7.97;2.58;;;15.50;97.40;;;;;;4990246;28;20106;-80
2021/05/22 03:22:32;;;;;;;8.98;2.85;;;15.50;97.50;;;;;;4989076;28;20452;-76
2021/05/22 03:24:58;;;;;;;5.75;2.35;;;15.40;97.60;;;;;;4990127;28;20027;-76
2021/05/22 03:27:24;;;;;;;5.95;2.08;;;15.50;97.60;;;;;;4990098;28;20072;-83
2021/05/22 03:29:50;;;;;;;5.85;2.70;;;15.50;97.70;;;;;;4990351;28;20386;-77
2021/05/22 03:32:16;;;;;;;5.68;2.10;;;15.50;97.80;;;;;;4988813;28;20050;-83
2021/05/22 03:34:42;;;;;;;4.82;2.78;;;15.50;98.00;;;;;;4990051;28;20042;-80
2021/05/22 03:37:08;;;;;;;7.43;2.80;;;15.50;98.30;;;;;;4990156;28;20088;-85
2021/05/22 03:39:34;;;;;;;10.43;3.33;;;15.40;98.80;;;;;;4990128;28;20030;-83
2021/05/22 03:42:00;;;;;;;6.80;2.80;;;15.40;99.10;;;;;;4990030;28;20308;-75
2021/05/22 03:44:26;;;;;;;5.10;2.80;;;15.50;99.20;;;;;;4990189;28;20022;-84
2021/05/22 03:46:52;;;;;;;6.60;2.83;;;15.50;99.20;;;;;;4990122;28;20045;-79
2021/05/22 03:49:17;;;;;;;6.72;2.95;;;15.50;99.10;;;;;;4990094;28;20031;-83
2021/05/22 03:51:44;;;;;;;8.37;3.10;;;15.50;99.00;;;;;;4988646;28;20042;-76
2021/05/22 03:54:10;;;;;;;5.20;2.70;;;15.40;98.80;;;;;;4989856;28;20290;-84
2021/05/22 03:56:36;;;;;;;8.88;2.80;;;15.50;98.30;;;;;;4990086;28;20041;-76
2021/05/22 03:59:02;;;;;;;5.93;3.00;;;15.30;97.40;;;;;;4990129;28;20398;-84
2021/05/22 04:01:28;;;;;;;4.68;3.28;;;15.30;97.50;;;;;;4994163;28;20816;-76
2021/05/22 04:03:55;;;;;;;7.80;3.00;;;15.30;97.40;;;;;;4995629;28;20031;-84
2021/05/22 04:06:21;;;;;;;6.40;3.30;;;15.20;97.30;;;;;;4993217;28;20312;-79
2021/05/22 04:08:47;;;;;;;6.23;2.50;;;15.10;97.30;;;;;;4993167;28;20448;-83
2021/05/22 04:11:12;;;;;;;5.38;2.67;;;15.10;97.40;;;;;;4993068;28;20619;-81
2021/05/22 04:13:38;;;;;;;6.13;3.53;;;15.10;97.20;;;;;;4992985;28;20526;-83
2021/05/22 04:16:05;;;;;;;6.65;2.92;;;15.10;97.40;;;;;;4992932;28;20038;-83
2021/05/22 04:18:31;;;;;;;4.47;2.80;;;15.10;97.50;;;;;;4993102;28;20034;-83
2021/05/22 04:20:57;;;;;;;5.88;2.42;;;15.10;97.70;;;;;;4993032;28;20395;-75
2021/05/22 04:23:23;;;;;;;9.40;2.83;;;15.20;97.90;;;;;;4991657;28;20038;-75
2021/05/22 04:25:49;;;;;;;4.15;2.40;;;15.10;98.00;;;;;;4992993;28;20026;-76
2021/05/22 04:28:15;;;;;;;11.18;3.47;;;15.10;98.30;;;;;;4992959;28;20027;-83
2021/05/22 04:30:40;;;;;;;8.03;2.40;;;15.10;98.30;;;;;;4992797;28;20065;-81
2021/05/22 04:33:06;;;;;;;3.70;2.08;;;15.10;98.50;;;;;;4992779;28;20038;-76
2021/05/22 04:35:33;;;;;;;6.05;2.58;;;15.20;98.70;;;;;;4992684;28;20029;-84
2021/05/22 04:37:59;;;;;;;4.47;2.97;;;15.20;98.80;;;;;;4992629;28;20061;-84
2021/05/22 04:40:25;;;;;;;5.20;2.70;;;15.30;99.00;;;;;;4992736;28;20030;-82
2021/05/22 04:42:51;;;;;;;4.45;2.38;;;15.30;99.00;;;;;;4992782;28;20079;-75
2021/05/22 04:45:17;;;;;;;6.47;2.75;;;15.40;99.10;;;;;;4992600;28;20592;-80
2021/05/22 04:47:43;;;;;;;12.60;2.47;;;15.50;99.30;;;;;;4992533;28;20047;-75
2021/05/22 04:50:09;;;;;;;5.85;2.63;;;15.50;99.50;;;;;;4992821;28;20152;-80
2021/05/22 04:52:37;;;;;;;13.98;3.30;;;15.60;99.70;;;;;;4992509;28;20033;-75
2021/05/22 04:55:03;;;;;;;11.82;2.85;;;15.70;99.80;;;;;;4992270;28;20030;-79
2021/05/22 04:57:29;;;;;;;3.92;2.22;;;15.70;99.80;;;;;;4992547;28;20031;-84
2021/05/22 04:59:55;;;;;;;4.90;2.47;;;15.80;99.90;;;;;;4992404;28;20111;-84
2021/05/22 05:02:21;;;;;;;4.90;2.47;;;15.90;99.90;;;;;;4992326;28;20084;-77
2021/05/22 05:04:47;;;;;;;6.50;2.20;;;16.00;99.90;;;;;;4992372;28;20658;-83
2021/05/22 05:07:12;;;;;;;5.73;1.70;;;16.00;99.70;;;;;;4990876;28;20578;-77
2021/05/22 05:09:39;;;;;;;11.40;2.72;;;16.20;99.70;;;;;;4992483;28;20287;-83
2021/05/22 05:12:07;;;;;;;6.78;2.55;;;16.30;99.50;;;;;;4992615;28;20452;-81
2021/05/22 05:14:33;;;;;;;3.30;1.70;;;16.30;99.30;;;;;;5000730;28;20072;-76
2021/05/22 05:16:59;;;;;;;5.45;1.60;;;16.40;99.10;;;;;;4992201;28;20109;-84
2021/05/22 05:19:28;;;;;;;3.17;1.60;;;16.50;98.70;;;;;;4992250;28;20026;-85
2021/05/22 05:21:55;;;;;;;7.55;2.30;;;16.50;98.80;;;;;;4992024;28;20030;-80
2021/05/22 05:24:21;;;;;;;4.03;1.77;;;16.60;98.80;;;;;;4991945;28;20034;-76
2021/05/22 05:26:47;;;;;;;8.25;1.75;;;16.70;98.80;;;;;;4992002;28;20364;-85
2021/05/22 05:29:13;;;;;;;6.50;1.92;;;16.80;98.80;;;;;;4992073;28;20101;-85
2021/05/22 05:31:39;;;;;;;7.38;2.33;;;16.80;99.00;;;;;;4992046;28;20058;-80
2021/05/22 05:34:05;;;;;;;5.27;1.93;;;16.90;99.10;;;;;;4991833;28;20030;-79
2021/05/22 05:36:31;;;;;;;16.85;2.92;;;16.90;99.20;;;;;;4991839;28;20037;-85
2021/05/22 05:38:57;;;;;;;4.00;2.00;;;16.90;99.30;;;;;;4991877;28;20479;-83
2021/05/22 05:41:23;;;;;;;6.37;1.63;;;16.90;99.10;;;;;;4991932;28;20080;-79
2021/05/22 05:43:49;;;;;;;2.72;1.23;;;17.00;99.20;;;;;;4991838;28;20033;-77
2021/05/22 05:46:14;;;;;;;5.17;2.03;;;17.00;98.90;;;;;;4990723;28;20027;-76
2021/05/22 05:48:40;;;;;;;5.97;2.00;;;17.10;98.70;;;;;;4991692;28;20027;-84
2021/05/22 05:51:06;;;;;;;6.00;1.73;;;17.20;98.40;;;;;;4991621;28;20308;-85
2021/05/22 05:53:32;;;;;;;3.20;1.60;;;17.20;97.70;;;;;;4991489;28;20115;-82
2021/05/22 05:55:58;;;;;;;3.65;2.58;;;17.40;97.60;;;;;;4991527;28;20121;-77
2021/05/22 05:58:24;;;;;;;8.30;2.03;;;17.40;97.60;;;;;;4991837;28;20034;-76
2021/05/22 06:00:50;;;;;;;4.93;1.92;;;17.50;97.30;;;;;;4991650;28;20479;-85
2021/05/22 06:03:26;;;;;;;3.07;1.90;;;17.60;96.90;;;;;;4991387;28;20022;-86
2021/05/22 06:05:52;;;;;;;2.08;1.67;;;17.70;96.70;;;;;;4990459;28;20289;-76
2021/05/22 06:08:19;;;;;;;4.47;2.13;;;17.80;96.40;;;;;;4991430;28;20110;-76
2021/05/22 06:10:47;;;;;;;5.95;3.08;;;17.80;96.20;;;;;;4991357;28;20419;-85
2021/05/22 06:13:31;;;;;;;5.00;2.30;;;17.90;95.80;;;;;;4991155;28;20023;-82
2021/05/22 06:18:37;;;;;;;6.05;3.45;;;18.10;95.20;;;;;;4991481;28;20034;-83
2021/05/22 06:21:06;;;;;;;9.18;4.45;;;18.10;94.80;;;;;;4991236;28;20027;-85
2021/05/22 06:23:33;;;;;;;6.55;3.17;;;18.20;93.80;;;;;;4990941;28;20084;-78
2021/05/22 06:26:00;;;;;;;9.30;3.20;;;18.30;93.70;;;;;;5003703;28;20022;-85
2021/05/22 06:28:27;;;;;;;4.57;2.80;;;18.30;93.40;;;;;;4990552;28;20537;-85
2021/05/22 06:30:55;;;;;;;6.03;2.75;;;18.40;93.40;;;;;;4990928;28;20395;-75
2021/05/22 06:33:22;;;;;;;7.38;2.35;;;18.50;93.10;;;;;;4991065;28;20101;-80
2021/05/22 06:35:48;;;;;;;3.83;2.13;;;18.60;93.00;;;;;;4991319;28;20502;-79
2021/05/22 06:38:14;;;;;;;3.45;2.03;;;18.60;92.30;;;;;;4991605;28;20033;-84
2021/05/22 06:40:39;;;;;;;5.10;1.92;;;18.70;91.90;;;;;;4991242;28;20105;-83
2021/05/22 06:43:05;;;;;;;4.53;1.70;;;18.80;91.60;;;;;;4991312;28;20073;-83
2021/05/22 06:45:45;;;;;;;5.33;1.93;;;18.90;91.10;;;;;;4991155;28;20360;-75
2021/05/22 06:48:12;;;;;;;2.10;1.45;;;19.00;90.70;;;;;;4990728;28;20175;-80
2021/05/22 06:50:39;;;;;;;4.75;1.77;;;19.00;90.30;;;;;;4990886;28;20058;-79
2021/05/22 06:53:06;;;;;;;2.85;1.52;;;19.20;90.50;;;;;;4991013;28;20062;-85
2021/05/22 06:55:32;;;;;;;6.63;1.50;;;19.20;90.30;;;;;;4991110;28;20048;-78
2021/05/22 06:57:59;;;;;;;7.13;1.30;;;19.30;90.40;;;;;;4990838;28;20030;-84
2021/05/22 07:00:25;;;;;;;3.38;1.00;;;19.40;90.00;;;;;;4991044;28;20033;-76
2021/05/22 07:02:51;;;;;;;4.00;1.65;;;19.50;88.30;;;;;;4991005;28;20026;-87
2021/05/22 07:05:17;;;;;;;4.20;1.33;;;19.60;87.10;;;;;;4989992;28;20121;-86
2021/05/22 07:07:43;;;;;;;4.45;1.00;;;19.70;87.20;;;;;;4990858;28;20027;-86
2021/05/22 07:10:12;;;;;;;4.07;1.40;;;19.80;86.20;;;;;;4990735;28;20053;-87
2021/05/22 07:12:39;;;;;;;4.25;1.52;;;20.00;85.60;;;;;;4990810;28;20406;-86
2021/05/22 07:15:07;;;;;;;4.53;1.77;;;20.10;86.20;;;;;;4990661;28;20046;-84
2021/05/22 07:17:33;;;;;;;4.20;1.30;;;20.20;84.90;;;;;;4990839;28;20027;-79
2021/05/22 07:19:59;;;;;;;2.75;1.10;;;20.30;83.50;;;;;;4990636;28;20068;-86
2021/05/22 07:22:25;;;;;;;3.42;1.23;;;20.40;82.90;;;;;;4990642;28;20109;-76
2021/05/22 07:24:51;;;;;;;4.05;1.48;;;20.40;80.00;;;;;;4990729;28;20079;-85
2021/05/22 07:27:18;;;;;;;3.17;0.98;;;20.50;80.40;;;;;;4990401;28;20658;-87
2021/05/22 07:29:49;;;;;;;3.28;1.38;;;20.60;80.60;;;;;;4990627;28;20486;-87
2021/05/22 07:32:15;;;;;;;4.55;1.50;;;20.60;79.60;;;;;;4989399;28;20392;-85
2021/05/22 07:34:41;;;;;;;3.03;1.13;;;20.70;79.30;;;;;;4990821;28;20034;-85
2021/05/22 07:37:07;;;;;;;2.73;1.10;;;20.80;78.50;;;;;;5000914;28;20079;-75
2021/05/22 07:39:33;;;;;;;1.38;0.85;;;20.90;77.20;;;;;;4995143;28;20031;-83
2021/05/22 07:41:59;;;;;;;2.45;0.90;;;21.00;76.10;;;;;;4993709;28;20026;-86
2021/05/22 07:44:25;;;;;;;2.40;1.00;;;21.10;76.50;;;;;;4993871;28;20027;-82
2021/05/22 07:46:52;;;;;;;11.25;1.17;;;21.30;74.70;;;;;;4993833;28;20039;-83
2021/05/22 07:49:18;;;;;;;2.88;0.90;;;21.40;75.60;;;;;;4993593;28;20132;-87
2021/05/22 07:51:45;;;;;;;9.48;5.35;;;21.50;74.30;;;;;;4993755;28;20049;-76
2021/05/22 07:54:12;;;;;;;5.70;1.55;;;21.60;73.60;;;;;;4993769;28;20050;-79
2021/05/22 07:56:38;;;;;;;7.35;1.20;;;21.60;72.10;;;;;;4993516;28;20386;-77
2021/05/22 07:59:04;;;;;;;4.13;0.97;;;21.60;71.80;;;;;;4993706;28;20038;-86
2021/05/22 08:01:33;;;;;;;2.00;0.70;;;21.60;69.90;;;;;;4993936;28;20603;-85
2021/05/22 08:03:59;;;;;;;5.53;1.60;;;21.60;70.90;;;;;;4992562;28;20034;-76
2021/05/22 08:06:25;;;;;;;3.88;1.42;;;21.70;71.80;;;;;;4993839;28;20030;-80
2021/05/22 08:08:51;;;;;;;2.83;1.73;;;21.80;73.20;;;;;;4993873;28;20208;-84
2021/05/22 08:11:17;;;;;;;1.90;0.90;;;22.00;76.90;;;;;;4992498;28;20475;-86
2021/05/22 08:13:43;;;;;;;3.33;2.17;;;22.00;69.10;;;;;;4993436;28;20058;-85
2021/05/22 08:16:09;;;;;;;4.03;2.20;;;22.10;76.10;;;;;;4993515;28;20114;-83
2021/05/22 08:18:39;;;;;;;8.25;3.00;;;22.40;81.10;;;;;;4993479;28;20026;-87
2021/05/22 08:21:05;;;;;;;2.70;1.65;;;22.50;83.10;;;;;;4993480;28;20159;-80
2021/05/22 08:23:31;;;;;;;3.75;1.60;;;22.60;79.60;;;;;;4993339;28;20023;-86
2021/05/22 08:25:57;;;;;;;9.83;2.30;;;22.70;84.50;;;;;;4993147;28;20030;-88
2021/05/22 08:28:26;;;;;;;6.93;2.20;;;22.70;86.00;;;;;;4993275;28;20274;-76
2021/05/22 08:30:53;;;;;;;4.07;2.10;;;22.80;88.70;;;;;;4993244;28;20026;-85
2021/05/22 08:33:19;;;;;;;1.50;1.40;;;22.90;90.90;;;;;;4992793;28;20105;-86
2021/05/22 08:35:45;;;;;;;4.77;2.03;;;22.80;91.00;;;;;;4993110;28;20181;-80
2021/05/22 08:38:10;;;;;;;3.22;1.80;;;22.80;90.60;;;;;;4992984;28;20272;-76
2021/05/22 08:40:37;;;;;;;3.33;1.97;;;22.70;91.40;;;;;;4991844;28;20022;-76
2021/05/22 08:43:03;;;;;;;4.30;1.80;;;22.70;91.00;;;;;;4992707;28;20113;-76
2021/05/22 08:45:30;;;;;;;7.63;1.75;;;22.70;91.10;;;;;;4992775;28;20493;-78
2021/05/22 08:47:57;;;;;;;6.15;2.08;;;22.80;90.60;;;;;;4998797;28;20022;-77
2021/05/22 08:50:24;;;;;;;5.00;1.58;;;22.80;92.00;;;;;;4995603;28;20037;-77
2021/05/22 08:52:53;;;;;;;6.40;1.77;;;22.70;91.50;;;;;;4992730;28;20096;-85
2021/05/22 08:55:20;;;;;;;7.75;1.98;;;22.70;91.60;;;;;;4992409;28;20042;-86
2021/05/22 08:57:46;;;;;;;7.78;2.17;;;22.70;92.00;;;;;;4992895;28;20026;-84
2021/05/22 09:00:16;;;;;;;5.53;1.83;;;22.60;92.10;;;;;;4991515;28;20507;-78
2021/05/22 09:02:43;;;;;;;6.47;2.20;;;22.50;92.10;;;;;;4992671;28;20547;-84
2021/05/22 09:05:21;;;;;;;6.30;2.55;;;22.50;92.30;;;;;;4992327;28;20031;-78
2021/05/22 09:07:53;;;;;;;4.32;2.60;;;22.60;91.80;;;;;;4992476;28;20026;-79
2021/05/22 09:10:23;;;;;;;7.55;1.80;;;22.70;92.10;;;;;;4992535;28;20038;-76
2021/05/22 09:12:58;;;;;;;6.80;2.25;;;22.70;91.80;;;;;;4992341;28;20390;-77
2021/05/22 09:15:32;;;;;;;4.10;1.65;;;22.70;92.00;;;;;;4992380;28;20073;-76
2021/05/22 09:18:06;;;;;;;5.38;1.70;;;22.60;91.70;;;;;;4991109;28;20432;-82
2021/05/22 09:20:35;;;;;;;3.67;1.75;;;22.50;91.80;;;;;;4992257;28;20502;-76
2021/05/22 09:23:08;;;;;;;5.13;1.40;;;22.40;91.70;;;;;;4990987;28;20026;-77
2021/05/22 09:25:36;;;;;;;5.10;2.10;;;22.30;92.40;;;;;;4992304;28;20499;-87
2021/05/22 09:28:03;;;;;;;2.28;1.40;;;22.20;92.80;;;;;;4992041;28;20418;-76
2021/05/22 09:30:30;;;;;;;6.80;1.65;;;22.10;92.80;;;;;;4990956;28;20038;-86
2021/05/22 09:32:57;;;;;;;6.60;1.98;;;22.10;92.90;;;;;;4992120;28;20057;-81
2021/05/22 09:35:25;;;;;;;6.00;2.08;;;22.10;92.90;;;;;;4991956;28;20042;-77
2021/05/22 09:37:54;;;;;;;6.05;1.80;;;22.10;93.10;;;;;;4991956;28;20068;-78
2021/05/22 09:40:24;;;;;;;5.25;1.77;;;22.10;93.20;;;;;;4991773;28;20034;-76
2021/05/22 09:42:51;;;;;;;4.07;1.20;;;22.40;93.30;;;;;;4991687;28;20033;-83
2021/05/22 09:45:30;;;;;;;3.20;1.35;;;22.60;93.20;;;;;;4991771;28;20030;-84
2021/05/22 09:47:59;;;;;;;5.00;1.60;;;22.70;92.50;;;;;;4991987;28;20094;-77
2021/05/22 09:50:29;;;;;;;2.90;1.33;;;22.80;92.50;;;;;;4991947;28;20029;-80
2021/05/22 09:52:56;;;;;;;7.22;2.33;;;23.00;92.40;;;;;;4991705;28;20113;-76
2021/05/22 09:55:23;;;;;;;3.40;1.30;;;23.20;92.10;;;;;;4990517;28;20454;-79
2021/05/22 09:57:51;;;;;;;2.75;1.50;;;23.30;91.50;;;;;;4990720;28;20496;-83
2021/05/22 10:00:18;;;;;;;4.97;1.58;;;23.30;91.60;;;;;;5001828;28;20031;-86
2021/05/22 10:02:56;;;;;;;3.72;2.08;;;23.20;91.70;;;;;;4991745;28;20018;-81
2021/05/22 10:05:29;;;;;;;5.20;1.70;;;23.20;91.00;;;;;;4990343;28;20084;-82
2021/05/22 10:07:57;;;;;;;4.05;1.80;;;23.20;91.00;;;;;;4991603;28;20050;-86
2021/05/22 10:10:37;;;;;;;2.83;1.60;;;23.30;91.10;;;;;;4991642;28;20049;-78
2021/05/22 10:13:06;;;;;;;3.95;1.13;;;23.50;90.50;;;;;;4991242;28;20037;-85
2021/05/22 10:15:32;;;;;;;6.60;1.48;;;23.80;88.90;;;;;;4991317;28;20042;-76
2021/05/22 10:17:58;;;;;;;4.40;1.63;;;24.00;88.30;;;;;;4991299;28;20034;-76
2021/05/22 10:20:24;;;;;;;6.50;1.25;;;24.20;87.80;;;;;;4991405;28;20023;-85
2021/05/22 10:22:50;;;;;;;2.60;1.20;;;24.40;87.30;;;;;;4991644;28;20023;-85
2021/05/22 10:25:17;;;;;;;6.07;1.63;;;24.60;87.10;;;;;;4991466;28;20163;-82
2021/05/22 10:27:43;;;;;;;3.85;1.52;;;24.80;87.20;;;;;;4991301;28;20035;-85
2021/05/22 10:30:09;;;;;;;1.55;1.23;;;24.90;86.60;;;;;;4990134;28;20447;-86
2021/05/22 10:32:37;;;;;;;3.63;1.70;;;25.00;87.10;;;;;;4991192;28;20033;-78
2021/05/22 10:35:20;;;;;;;7.07;1.80;;;24.90;86.20;;;;;;4991054;28;20045;-85
2021/05/22 10:37:48;;;;;;;3.95;1.58;;;25.10;85.50;;;;;;4991187;28;20227;-86
2021/05/22 10:40:49;;;;;;;4.38;1.20;;;25.00;84.70;;;;;;4991088;28;20478;-86
2021/05/22 10:43:15;;;;;;;3.40;1.42;;;25.10;85.80;;;;;;4993681;28;20046;-87
2021/05/22 10:45:43;;;;;;;4.07;1.55;;;25.20;86.00;;;;;;4990946;28;20034;-77
2021/05/22 10:48:15;;;;;;;4.13;1.73;;;25.20;85.50;;;;;;4990803;28;20042;-76
2021/05/22 10:50:48;;;;;;;6.40;2.22;;;25.20;84.50;;;;;;4990896;28;20026;-76
2021/05/22 10:53:32;;;;;;;4.82;1.30;;;25.30;85.80;;;;;;4990677;28;20513;-77
2021/05/22 10:56:15;;;;;;;3.95;1.58;;;25.20;85.40;;;;;;4990778;28;20071;-85
2021/05/22 10:58:59;;;;;;;2.33;1.20;;;25.10;85.10;;;;;;4990816;28;20026;-88
2021/05/22 11:04:17;;;;;;;3.10;1.90;;;25.30;84.90;;;;;;4990795;28;20026;-85
2021/05/22 11:06:51;;;;;;;6.32;1.88;;;25.20;82.30;;;;;;4990914;28;20033;-86
2021/05/22 11:09:31;;;;;;;5.20;1.27;;;25.20;84.30;;;;;;4991865;28;20041;-82
2021/05/22 11:12:10;;;;;;;5.93;1.38;;;25.20;84.70;;;;;;4982817;28;20130;-80
2021/05/22 11:14:50;;;;;;;4.35;1.10;;;25.20;84.30;;;;;;4990355;28;20065;-77
2021/05/22 11:17:19;;;;;;;8.82;2.08;;;25.30;83.30;;;;;;4990689;28;20030;-87
2021/05/22 11:20:04;;;;;;;8.07;1.88;;;25.40;85.20;;;;;;4990770;28;20038;-84
2021/05/22 11:22:42;;;;;;;5.07;1.80;;;25.70;84.30;;;;;;4990529;28;20041;-84
2021/05/22 11:25:11;;;;;;;6.80;2.03;;;25.80;83.80;;;;;;4990361;28;20033;-84
2021/05/22 11:27:51;;;;;;;4.63;2.03;;;25.90;84.60;;;;;;4990492;28;20033;-86
2021/05/22 11:30:42;;;;;;;5.43;2.20;;;26.00;83.60;;;;;;4990656;28;20041;-76
2021/05/22 11:33:11;;;;;;;6.22;2.97;;;26.00;83.00;;;;;;4990460;28;20482;-87
2021/05/22 11:35:42;;;;;;;3.72;1.70;;;26.00;81.70;;;;;;4990266;28;20039;-87
2021/05/22 11:38:13;;;;;;;4.85;2.10;;;25.90;83.00;;;;;;4990249;28;20080;-80
2021/05/22 11:40:39;;;;;;;6.80;1.85;;;25.80;82.50;;;;;;4990233;28;20368;-87
2021/05/22 11:43:14;;;;;;;4.28;2.20;;;25.70;82.30;;;;;;4990290;28;20031;-87
2021/05/22 11:45:46;;;;;;;4.18;1.40;;;25.60;82.80;;;;;;4990354;28;20442;-85
2021/05/22 11:48:29;;;;;;;5.28;1.27;;;25.50;83.50;;;;;;4990388;28;20045;-78
2021/05/22 11:50:57;;;;;;;5.65;2.03;;;25.50;72.70;;;;;;4990325;28;20033;-79
2021/05/22 11:53:28;;;;;;;2.83;1.30;;;25.40;72.50;;;;;;4990038;28;20050;-84
2021/05/22 11:56:01;;;;;;;6.20;1.30;;;25.40;73.50;;;;;;4990080;28;20087;-83
2021/05/22 11:58:29;;;;;;;7.47;1.60;;;25.40;72.70;;;;;;4990125;28;20026;-78
2021/05/22 12:01:04;;;;;;;3.30;1.02;;;25.20;72.00;;;;;;4990028;28;20026;-77
2021/05/22 12:03:31;;;;;;;2.88;1.50;;;25.10;73.60;;;;;;4990101;28;20558;-85
2021/05/22 12:05:57;;;;;;;7.68;1.83;;;25.40;76.00;;;;;;4990118;28;20034;-81
2021/05/22 12:08:27;;;;;;;3.07;1.40;;;25.40;76.40;;;;;;4990093;28;20031;-85
2021/05/22 12:10:54;;;;;;;4.07;1.65;;;25.20;77.20;;;;;;4989830;28;20030;-74
2021/05/22 12:13:20;;;;;;;7.43;1.88;;;24.90;79.60;;;;;;4988722;28;20081;-83
2021/05/22 12:15:48;;;;;;;6.38;1.90;;;24.80;80.40;;;;;;4989792;28;20030;-84
2021/05/22 12:18:16;;;;;;;3.50;1.40;;;24.70;80.40;;;;;;4989963;28;20030;-80
2021/05/22 12:20:55;;;;;;;4.40;1.65;;;24.60;80.90;;;;;;4990665;28;20041;-86
2021/05/22 12:23:24;;;;;;;3.83;1.48;;;24.90;78.70;;;;;;4994078;28;20039;-86
2021/05/22 12:25:51;;;;;;;4.35;1.10;;;24.90;79.20;;;;;;4993295;28;20057;-80
2021/05/22 12:28:18;;;;;;;5.05;1.77;;;24.80;80.30;;;;;;4993221;28;20035;-85
2021/05/22 12:30:45;;;;;;;13.55;1.77;;;24.80;80.60;;;;;;4993144;28;20496;-84
2021/05/22 12:33:13;;;;;;;5.55;1.30;;;24.80;80.50;;;;;;4993060;28;20030;-76
2021/05/22 12:35:39;;;;;;;7.35;2.67;;;25.00;79.70;;;;;;4991860;28;20077;-82
2021/05/22 12:38:05;;;;;;;3.95;2.05;;;24.90;79.70;;;;;;4992887;28;20054;-82
2021/05/22 12:40:49;;;;;;;4.73;2.53;;;25.00;80.50;;;;;;4992950;28;20075;-84
2021/05/22 12:43:16;;;;;;;3.17;1.80;;;24.90;81.60;;;;;;4992837;28;20293;-76
2021/05/22 12:45:44;;;;;;;3.80;1.85;;;24.80;80.90;;;;;;4991900;28;20439;-83
2021/05/22 12:48:26;;;;;;;10.63;2.10;;;25.10;78.90;;;;;;4993069;28;20022;-87
2021/05/22 12:50:52;;;;;;;16.38;3.13;;;24.80;80.30;;;;;;4992803;28;20057;-86
2021/05/22 12:53:29;;;;;;;6.20;2.30;;;24.70;80.20;;;;;;4992967;28;20026;-77
2021/05/22 12:56:06;;;;;;;8.18;3.03;;;24.70;80.10;;;;;;4991533;28;20123;-83
2021/05/22 12:58:33;;;;;;;3.47;1.60;;;24.80;79.30;;;;;;4992704;28;20034;-77